Time;durP1;ratioP1;P1;durP2;ratioP2;P2;SDS_P1;SDS_P2;PMS_P1;PMS_P2;Temp;Humidity;BMP_temperature;BMP_pressure;BME280_temperature;BME280_humidity;BME280_pressure;Samples;Min_cycle;Max_cycle;Signal;HPM_P1;HPM_P2
2023/09/29 00:00:39;;;;;;;6.70;4.57;;;;;;;21.24;83.56;100156.97;5040708;28;20083;-64
2023/09/29 00:02:58;;;;;;;6.85;3.80;;;;;;;21.22;83.68;100159.88;5040691;28;20067;-63
2023/09/29 00:05:23;;;;;;;6.05;4.28;;;;;;;21.15;84.03;100153.69;5040342;28;20327;-64
2023/09/29 00:07:52;;;;;;;7.82;4.20;;;;;;;21.21;83.82;100154.69;5040271;28;20287;-66
2023/09/29 00:10:20;;;;;;;4.80;3.83;;;;;;;21.17;83.89;100154.28;5041010;28;20091;-64
2023/09/29 00:12:48;;;;;;;4.95;3.88;;;;;;;21.21;83.97;100154.69;5040673;28;20033;-66
2023/09/29 00:15:15;;;;;;;6.20;4.43;;;;;;;21.23;84.09;100147.22;5049578;28;20037;-66
2023/09/29 00:17:41;;;;;;;5.90;4.53;;;;;;;21.00;85.27;100147.81;5041273;28;20033;-63
2023/09/29 00:20:26;;;;;;;8.73;4.32;;;;;;;20.96;85.23;100152.81;5048935;28;20530;-64
2023/09/29 00:22:59;;;;;;;5.38;4.05;;;;;;;20.93;85.56;100153.25;5049211;28;20037;-64
2023/09/29 00:25:25;;;;;;;5.68;3.72;;;;;;;20.96;85.03;100149.31;5040645;28;20055;-63
2023/09/29 00:27:51;;;;;;;5.70;4.03;;;;;;;20.83;85.73;100147.53;5041161;28;20033;-64
2023/09/29 00:30:17;;;;;;;5.78;4.35;;;;;;;20.86;85.94;100143.59;5040739;28;20357;-64
2023/09/29 00:32:44;;;;;;;7.10;4.75;;;;;;;20.99;85.19;100138.91;5040895;28;20038;-64
2023/09/29 00:35:17;;;;;;;9.50;4.55;;;;;;;20.97;85.22;100145.56;5040666;28;20041;-64
2023/09/29 00:37:44;;;;;;;6.25;4.00;;;;;;;21.00;85.02;100145.94;5048627;28;20035;-66
2023/09/29 00:40:12;;;;;;;6.50;4.38;;;;;;;20.93;85.61;100138.97;5047544;28;20037;-63
2023/09/29 00:42:39;;;;;;;7.05;5.05;;;;;;;20.99;85.20;100138.09;5045960;28;20128;-66
2023/09/29 00:45:05;;;;;;;7.20;4.55;;;;;;;21.01;85.21;100142.22;5039849;28;20105;-64
2023/09/29 00:47:32;;;;;;;7.95;4.32;;;;;;;20.77;86.19;100137.63;5039735;28;20041;-64
2023/09/29 00:49:57;;;;;;;6.70;4.20;;;;;;;20.73;86.65;100139.94;5040215;28;20112;-64
2023/09/29 00:52:24;;;;;;;8.20;3.95;;;;;;;20.82;86.34;100137.00;5040051;28;20041;-66
2023/09/29 00:54:51;;;;;;;6.28;4.43;;;;;;;20.65;87.12;100139.38;5039415;28;20033;-66
2023/09/29 00:57:17;;;;;;;5.60;4.13;;;;;;;20.74;86.64;100132.69;5039668;28;20025;-66
2023/09/29 00:59:43;;;;;;;7.03;3.88;;;;;;;20.65;87.14;100132.13;5039858;28;20223;-66
2023/09/29 01:02:10;;;;;;;7.85;4.55;;;;;;;20.67;87.05;100135.41;5040153;28;20056;-64
2023/09/29 01:04:36;;;;;;;5.90;4.32;;;;;;;20.60;87.35;100137.34;5039824;28;20034;-66
2023/09/29 01:07:07;;;;;;;7.95;4.15;;;;;;;20.60;87.28;100131.13;5039766;28;20045;-66
2023/09/29 01:09:32;;;;;;;5.45;4.57;;;;;;;20.58;87.16;100134.03;5039952;28;20060;-64
2023/09/29 01:12:00;;;;;;;6.45;4.22;;;;;;;20.68;86.25;100133.56;5038786;28;20338;-66
2023/09/29 01:14:25;;;;;;;6.85;4.13;;;;;;;20.64;86.68;100132.34;5040085;28;20407;-65
2023/09/29 01:16:51;;;;;;;4.93;3.95;;;;;;;20.57;86.40;100132.38;5039983;28;20037;-66
2023/09/29 01:19:18;;;;;;;6.18;4.20;;;;;;;20.61;86.36;100130.91;5039877;28;20211;-64
2023/09/29 01:21:46;;;;;;;5.13;3.90;;;;;;;20.50;86.43;100131.59;5039136;28;20063;-64
2023/09/29 01:24:13;;;;;;;7.35;4.00;;;;;;;20.59;86.24;100132.16;5049608;28;20034;-66
2023/09/29 01:26:38;;;;;;;5.82;3.67;;;;;;;20.61;85.81;100138.97;5043150;28;20028;-63
2023/09/29 01:29:04;;;;;;;5.22;4.18;;;;;;;20.68;85.36;100129.00;5043397;28;20059;-66
2023/09/29 01:31:31;;;;;;;7.40;3.88;;;;;;;20.70;84.79;100134.16;5042872;28;20344;-66
2023/09/29 01:33:57;;;;;;;7.63;4.28;;;;;;;20.73;84.25;100125.66;5043458;28;20335;-66
2023/09/29 01:36:24;;;;;;;6.38;3.88;;;;;;;20.75;84.18;100128.13;5042855;28;20053;-63
2023/09/29 01:38:49;;;;;;;5.10;3.58;;;;;;;20.81;83.71;100129.97;5043081;28;20113;-66
2023/09/29 01:41:15;;;;;;;6.55;4.00;;;;;;;20.77;83.43;100123.34;5042618;28;20056;-63
2023/09/29 01:43:40;;;;;;;7.38;4.15;;;;;;;20.84;83.19;100133.03;5043156;28;20053;-63
2023/09/29 01:46:09;;;;;;;5.43;3.85;;;;;;;20.86;83.00;100122.88;5052195;28;20029;-64
2023/09/29 01:48:35;;;;;;;5.50;3.40;;;;;;;20.90;82.64;100128.66;5043032;28;20036;-64
2023/09/29 01:51:03;;;;;;;6.57;3.75;;;;;;;20.94;82.31;100130.69;5042411;28;20037;-66
2023/09/29 01:53:31;;;;;;;5.68;4.15;;;;;;;20.95;81.66;100128.81;5043181;28;20438;-63
2023/09/29 01:55:59;;;;;;;4.43;3.70;;;;;;;20.85;82.00;100131.19;5043112;28;20319;-66
2023/09/29 01:58:27;;;;;;;5.80;3.78;;;;;;;20.75;81.67;100130.81;5042301;28;20327;-65
2023/09/29 02:00:53;;;;;;;6.63;3.90;;;;;;;20.53;82.28;100139.25;5042611;28;20031;-66
2023/09/29 02:03:18;;;;;;;4.43;3.88;;;;;;;20.36;83.26;100140.78;5042696;28;20041;-65
2023/09/29 02:05:44;;;;;;;6.85;3.97;;;;;;;20.17;84.05;100134.47;5042399;28;20040;-66
2023/09/29 02:08:10;;;;;;;7.47;4.13;;;;;;;20.25;84.01;100142.28;5041838;28;20102;-66
2023/09/29 02:10:36;;;;;;;6.70;4.10;;;;;;;20.36;83.15;100132.69;5042933;28;20037;-66
2023/09/29 02:13:07;;;;;;;5.43;4.00;;;;;;;20.32;83.15;100135.00;5042703;28;20211;-66
2023/09/29 02:15:34;;;;;;;9.73;5.30;;;;;;;20.12;84.18;100147.72;5042006;28;20230;-63
2023/09/29 02:18:00;;;;;;;6.55;4.20;;;;;;;20.13;84.23;100140.50;5041929;28;20038;-66
2023/09/29 02:20:29;;;;;;;5.78;3.90;;;;;;;19.95;84.70;100142.00;5041999;28;20057;-64
2023/09/29 02:22:56;;;;;;;7.00;4.40;;;;;;;20.12;84.65;100142.34;5042541;28;20041;-66
2023/09/29 02:25:25;;;;;;;6.72;3.88;;;;;;;20.23;83.82;100135.47;5041531;28;20092;-63
2023/09/29 02:27:55;;;;;;;8.25;4.18;;;;;;;20.27;83.19;100129.44;5041560;28;20033;-64
2023/09/29 02:30:21;;;;;;;7.78;4.25;;;;;;;19.91;84.71;100131.91;5041926;28;20047;-64
2023/09/29 02:32:47;;;;;;;9.88;4.40;;;;;;;20.11;84.13;100131.81;5041956;28;20037;-66
2023/09/29 02:35:13;;;;;;;7.25;3.72;;;;;;;20.23;83.60;100130.09;5041165;28;20223;-66
2023/09/29 02:37:39;;;;;;;4.75;3.42;;;;;;;20.30;82.82;100133.56;5042197;28;20359;-64
2023/09/29 02:40:13;;;;;;;4.28;3.55;;;;;;;20.24;82.93;100129.88;5041154;28;20025;-66
2023/09/29 02:42:39;;;;;;;6.07;4.03;;;;;;;20.30;82.47;100133.56;5041474;28;20040;-64
2023/09/29 02:45:06;;;;;;;5.75;3.63;;;;;;;20.22;82.78;100131.97;5048618;28;20327;-66
2023/09/29 02:47:31;;;;;;;5.03;3.45;;;;;;;20.26;82.22;100135.88;5050264;28;20067;-66
2023/09/29 02:49:58;;;;;;;6.18;3.50;;;;;;;20.29;82.10;100131.91;5042199;28;20053;-63
2023/09/29 02:52:24;;;;;;;7.10;3.58;;;;;;;20.13;81.63;100133.25;5043155;28;20037;-66
2023/09/29 02:54:49;;;;;;;5.88;3.17;;;;;;;20.21;81.63;100134.84;5042104;28;20037;-66
2023/09/29 02:57:16;;;;;;;5.22;3.38;;;;;;;20.30;80.61;100134.38;5049205;28;20033;-64
2023/09/29 02:59:42;;;;;;;6.20;3.50;;;;;;;20.31;80.45;100129.84;5049652;28;20033;-66
2023/09/29 03:02:08;;;;;;;5.40;3.55;;;;;;;20.39;80.12;100130.44;5041633;28;20410;-64
2023/09/29 03:04:33;;;;;;;5.25;3.42;;;;;;;20.39;79.79;100135.00;5041429;28;20048;-64
2023/09/29 03:06:59;;;;;;;6.15;3.55;;;;;;;20.50;78.92;100144.22;5041149;28;20246;-66
2023/09/29 03:09:25;;;;;;;5.47;3.63;;;;;;;20.50;78.86;100131.59;5040798;28;20041;-66
2023/09/29 03:11:51;;;;;;;8.57;3.40;;;;;;;20.53;78.31;100136.56;5041401;28;20029;-63
2023/09/29 03:14:17;;;;;;;6.93;4.10;;;;;;;20.55;77.72;100134.47;5041603;28;20033;-64
2023/09/29 03:16:43;;;;;;;5.90;3.30;;;;;;;20.55;77.78;100129.09;5040482;28;20029;-64
2023/09/29 03:19:09;;;;;;;6.63;3.75;;;;;;;20.49;77.52;100129.13;5041258;28;20052;-63
2023/09/29 03:21:34;;;;;;;6.60;3.55;;;;;;;20.51;77.67;100129.75;5040809;28;20041;-66
2023/09/29 03:24:01;;;;;;;6.47;3.38;;;;;;;20.55;77.24;100128.25;5041212;28;20029;-66
2023/09/29 03:26:27;;;;;;;10.32;4.28;;;;;;;20.56;77.04;100125.34;5040846;28;20057;-64
2023/09/29 03:28:55;;;;;;;17.48;4.68;;;;;;;20.59;77.04;100129.47;5041039;28;20040;-64
2023/09/29 03:31:24;;;;;;;8.60;3.42;;;;;;;20.62;76.80;100129.88;5040457;28;20068;-64
2023/09/29 03:33:49;;;;;;;6.05;3.53;;;;;;;20.57;76.59;100116.25;5049764;28;20044;-66
2023/09/29 03:36:15;;;;;;;7.28;3.40;;;;;;;20.64;76.47;100121.56;5040715;28;20025;-64
2023/09/29 03:38:41;;;;;;;11.50;4.30;;;;;;;20.65;76.21;100124.06;5041043;28;20060;-66
2023/09/29 03:41:09;;;;;;;7.03;3.65;;;;;;;20.65;75.76;100123.22;5040038;28;20036;-63
2023/09/29 03:43:34;;;;;;;10.30;3.42;;;;;;;20.52;76.17;100124.16;5049050;28;20041;-64
2023/09/29 03:46:00;;;;;;;7.65;3.47;;;;;;;20.58;75.95;100120.59;5040356;28;20032;-66
2023/09/29 03:48:25;;;;;;;8.93;4.05;;;;;;;20.56;75.66;100117.28;5040588;28;20049;-63
2023/09/29 03:50:51;;;;;;;6.03;3.63;;;;;;;20.54;75.79;100121.25;5040257;28;20037;-66
2023/09/29 03:53:17;;;;;;;5.85;3.55;;;;;;;20.50;75.96;100120.03;5040238;28;20045;-65
2023/09/29 03:55:44;;;;;;;7.07;4.45;;;;;;;20.52;76.04;100118.75;5040499;28;20029;-63
2023/09/29 03:58:10;;;;;;;9.23;4.28;;;;;;;20.49;76.38;100116.50;5040082;28;20104;-66
2023/09/29 04:00:36;;;;;;;6.50;3.50;;;;;;;20.38;76.88;100117.19;5045187;28;20029;-66
2023/09/29 04:03:01;;;;;;;9.35;3.83;;;;;;;20.51;76.38;100122.50;5049323;28;20040;-66
2023/09/29 04:05:27;;;;;;;9.75;3.92;;;;;;;20.50;76.39;100115.47;5052986;28;20064;-66
2023/09/29 04:07:53;;;;;;;5.32;3.55;;;;;;;20.57;76.10;100115.41;5052544;28;20044;-64
2023/09/29 04:10:20;;;;;;;8.15;3.78;;;;;;;20.55;76.05;100112.94;5052865;28;20036;-66
2023/09/29 04:12:47;;;;;;;5.07;3.75;;;;;;;20.57;75.87;100121.63;5053187;28;20060;-66
2023/09/29 04:15:13;;;;;;;9.15;4.40;;;;;;;20.43;76.56;100117.38;5052663;28;20037;-64
2023/09/29 04:17:39;;;;;;;7.38;3.55;;;;;;;20.54;76.39;100119.38;5052765;28;20246;-63
2023/09/29 04:20:05;;;;;;;11.18;3.92;;;;;;;20.57;75.98;100110.88;5053270;28;20126;-63
2023/09/29 04:22:32;;;;;;;8.98;3.75;;;;;;;20.61;75.69;100112.06;5048762;28;20025;-65
2023/09/29 04:24:57;;;;;;;7.10;3.72;;;;;;;20.64;75.69;100113.50;5049032;28;20039;-63
2023/09/29 04:27:23;;;;;;;14.20;3.92;;;;;;;20.67;75.79;100116.59;5039664;28;20052;-66
2023/09/29 04:29:50;;;;;;;6.38;3.65;;;;;;;20.62;75.56;100116.41;5039953;28;20041;-66
2023/09/29 04:32:15;;;;;;;8.40;3.80;;;;;;;20.69;75.62;100121.75;5040457;28;20026;-66
2023/09/29 04:34:41;;;;;;;18.70;4.50;;;;;;;20.72;75.59;100119.44;5040169;28;20500;-66
2023/09/29 04:37:06;;;;;;;7.60;3.25;;;;;;;20.70;75.82;100110.75;5040155;28;20045;-66
2023/09/29 04:39:31;;;;;;;9.68;3.47;;;;;;;20.64;76.10;100111.63;5039943;28;20416;-64
2023/09/29 04:41:57;;;;;;;6.88;3.22;;;;;;;20.64;76.31;100113.50;5040223;28;20043;-66
2023/09/29 04:44:23;;;;;;;10.13;4.18;;;;;;;20.60;76.47;100113.13;5040013;28;20056;-63
2023/09/29 04:46:48;;;;;;;7.63;3.47;;;;;;;20.53;76.78;100115.03;5043234;28;20245;-66
2023/09/29 04:49:14;;;;;;;7.22;4.28;;;;;;;20.47;77.24;100115.09;5043947;28;20104;-66
2023/09/29 04:51:40;;;;;;;10.50;4.63;;;;;;;20.40;77.48;100113.25;5039158;28;20037;-66
2023/09/29 04:54:06;;;;;;;11.02;3.70;;;;;;;20.35;77.91;100114.91;5047501;28;20107;-65
2023/09/29 04:56:32;;;;;;;10.30;3.58;;;;;;;20.36;77.99;100119.25;5038650;28;20037;-63
2023/09/29 04:58:57;;;;;;;11.63;4.00;;;;;;;20.37;78.09;100115.53;5049670;28;20230;-66
2023/09/29 05:01:24;;;;;;;5.88;3.88;;;;;;;20.43;77.49;100117.38;5043238;28;20041;-63
2023/09/29 05:03:51;;;;;;;9.38;4.28;;;;;;;20.45;77.69;100118.00;5044122;28;20035;-66
2023/09/29 05:06:17;;;;;;;6.82;3.25;;;;;;;20.53;77.24;100127.66;5043455;28;20095;-63
2023/09/29 05:08:44;;;;;;;7.07;3.95;;;;;;;20.56;76.95;100127.22;5043495;28;20050;-65
2023/09/29 05:11:19;;;;;;;5.85;3.75;;;;;;;20.61;76.69;100116.63;5042343;28;20081;-65
2023/09/29 05:13:45;;;;;;;8.85;3.67;;;;;;;20.61;76.69;100130.09;5042700;28;20042;-63
2023/09/29 05:16:10;;;;;;;9.95;3.97;;;;;;;20.65;76.53;100125.91;5052078;28;20033;-66
2023/09/29 05:18:36;;;;;;;7.40;3.72;;;;;;;20.72;76.25;100137.47;5056222;28;20040;-66
2023/09/29 05:21:01;;;;;;;10.07;3.63;;;;;;;20.71;75.82;100133.13;5056198;28;20354;-63
2023/09/29 05:23:26;;;;;;;6.40;3.60;;;;;;;20.72;75.40;100143.66;5056781;28;20067;-64
2023/09/29 05:25:52;;;;;;;10.13;4.22;;;;;;;20.71;75.32;100131.25;5055407;28;20086;-66
2023/09/29 05:28:18;;;;;;;6.75;3.50;;;;;;;20.75;74.31;100138.88;5054482;28;20037;-66
2023/09/29 05:30:53;;;;;;;7.05;3.30;;;;;;;20.71;74.44;100139.31;5056115;28;20259;-66
2023/09/29 05:33:19;;;;;;;7.75;3.40;;;;;;;20.76;73.73;100143.22;5055908;28;20362;-65
2023/09/29 05:35:46;;;;;;;13.90;4.45;;;;;;;20.85;72.78;100136.56;5057891;28;20386;-65
2023/09/29 05:38:11;;;;;;;4.72;3.30;;;;;;;20.90;72.62;100144.81;5055756;28;20048;-64
2023/09/29 05:40:38;;;;;;;6.82;3.50;;;;;;;21.01;71.84;100136.00;5055389;28;20155;-66
2023/09/29 05:43:04;;;;;;;10.65;3.42;;;;;;;21.13;70.98;100131.56;5055641;28;20041;-66
2023/09/29 05:45:29;;;;;;;6.10;3.25;;;;;;;21.33;69.87;100134.09;5055681;28;20196;-66
2023/09/29 05:47:56;;;;;;;5.80;3.28;;;;;;;21.51;68.45;100136.78;5055322;28;20290;-64
2023/09/29 05:50:21;;;;;;;5.25;3.47;;;;;;;21.58;67.89;100137.53;5055303;28;20039;-66
2023/09/29 05:52:48;;;;;;;7.45;3.20;;;;;;;21.78;67.01;100140.00;5054996;28;20386;-64
2023/09/29 05:55:13;;;;;;;8.82;3.92;;;;;;;21.98;66.72;100129.00;5054898;28;20044;-66
2023/09/29 05:57:39;;;;;;;8.70;3.80;;;;;;;22.07;65.80;100129.56;5055639;28;20071;-66
2023/09/29 06:00:06;;;;;;;5.95;3.00;;;;;;;22.10;65.89;100134.50;5055052;28;20029;-66
2023/09/29 06:02:31;;;;;;;5.32;3.40;;;;;;;22.05;66.28;100132.47;5055018;28;20039;-63
2023/09/29 06:04:56;;;;;;;8.50;3.53;;;;;;;22.12;65.56;100133.22;5053514;28;20056;-66
2023/09/29 06:07:22;;;;;;;7.07;3.50;;;;;;;22.26;65.45;100131.16;5055063;28;20037;-64
2023/09/29 06:09:48;;;;;;;28.58;7.03;;;;;;;22.36;65.02;100136.00;5054057;28;20057;-64
2023/09/29 06:12:13;;;;;;;11.23;3.75;;;;;;;22.61;63.93;100132.09;5054183;28;20036;-65
2023/09/29 06:14:39;;;;;;;10.15;3.25;;;;;;;22.86;62.47;100121.13;5054802;28;20036;-64
2023/09/29 06:17:04;;;;;;;7.82;3.65;;;;;;;23.03;60.92;100134.78;5055005;28;20039;-64
2023/09/29 06:19:30;;;;;;;10.95;4.00;;;;;;;23.06;59.65;100131.63;5054905;28;20094;-66
2023/09/29 06:21:56;;;;;;;9.93;3.45;;;;;;;23.06;59.22;100120.00;5054522;28;20055;-64
2023/09/29 06:24:21;;;;;;;7.63;3.78;;;;;;;23.03;59.04;100123.97;5055062;28;20056;-66
2023/09/29 06:26:46;;;;;;;16.23;5.00;;;;;;;23.08;58.47;100132.22;5054625;28;20024;-64
2023/09/29 06:29:12;;;;;;;7.53;3.67;;;;;;;22.88;58.10;100134.38;5054197;28;20029;-66
2023/09/29 06:31:38;;;;;;;12.45;3.45;;;;;;;22.93;58.14;100138.06;5054574;28;20075;-66
2023/09/29 06:34:04;;;;;;;7.38;3.25;;;;;;;22.87;59.23;100138.16;5053339;28;20326;-66
2023/09/29 06:36:29;;;;;;;4.13;2.83;;;;;;;22.83;58.84;100135.09;5055073;28;20079;-66
2023/09/29 06:38:56;;;;;;;9.00;3.63;;;;;;;22.83;58.93;100131.56;5054867;28;20037;-66
2023/09/29 06:41:23;;;;;;;5.72;3.45;;;;;;;22.80;57.96;100132.03;5054214;28;20358;-66
2023/09/29 06:43:50;;;;;;;9.95;3.35;;;;;;;22.77;57.33;100136.00;5054263;28;20243;-66
2023/09/29 06:46:15;;;;;;;10.07;3.70;;;;;;;22.86;57.25;100125.69;5054325;28;20033;-66
2023/09/29 06:48:42;;;;;;;8.45;3.47;;;;;;;22.87;56.23;100133.56;5054256;28;20047;-65
2023/09/29 06:51:08;;;;;;;11.27;3.45;;;;;;;22.92;57.27;100135.59;5054274;28;20090;-64
2023/09/29 06:53:33;;;;;;;6.70;3.20;;;;;;;22.91;57.48;100137.47;5054495;28;20041;-66
2023/09/29 06:55:59;;;;;;;6.38;2.97;;;;;;;22.89;56.81;100136.06;5054151;28;20033;-64
2023/09/29 06:58:24;;;;;;;5.25;3.33;;;;;;;22.90;57.59;100135.00;5054401;28;20134;-66
2023/09/29 07:00:51;;;;;;;7.30;3.00;;;;;;;22.92;56.48;100131.03;5053643;28;20254;-64
2023/09/29 07:03:17;;;;;;;7.72;3.58;;;;;;;23.04;55.07;100136.44;5054345;28;20051;-64
2023/09/29 07:05:43;;;;;;;13.52;3.83;;;;;;;23.07;55.35;100135.97;5053718;28;20075;-66
2023/09/29 07:08:08;;;;;;;6.75;3.95;;;;;;;23.06;53.68;100133.50;5053863;28;20052;-66
2023/09/29 07:10:34;;;;;;;6.30;3.08;;;;;;;23.05;52.95;100137.25;5053830;28;20044;-65
2023/09/29 07:12:59;;;;;;;10.38;3.42;;;;;;;23.17;52.68;100135.38;5053995;28;20037;-66
2023/09/29 07:15:25;;;;;;;7.60;3.28;;;;;;;23.35;51.33;100131.72;5053982;28;20040;-66
2023/09/29 07:17:50;;;;;;;7.65;2.83;;;;;;;23.45;51.14;100131.97;5054064;28;20241;-63
2023/09/29 07:20:16;;;;;;;9.18;3.00;;;;;;;23.67;51.14;100137.59;5054269;28;20056;-63
2023/09/29 07:22:41;;;;;;;5.57;2.92;;;;;;;23.86;49.15;100136.38;5053539;28;20118;-66
2023/09/29 07:25:07;;;;;;;6.15;2.88;;;;;;;24.00;46.64;100132.38;5053837;28;20047;-63
2023/09/29 07:27:32;;;;;;;4.60;2.10;;;;;;;24.17;46.51;100135.13;5054063;28;20037;-66
2023/09/29 07:29:58;;;;;;;5.80;2.58;;;;;;;24.28;45.75;100141.56;5053265;28;20028;-66
2023/09/29 07:32:26;;;;;;;12.25;3.25;;;;;;;24.32;46.42;100140.84;5054425;28;20384;-65
2023/09/29 07:34:51;;;;;;;7.85;3.05;;;;;;;24.41;46.52;100136.69;5057054;28;20033;-66
2023/09/29 07:37:16;;;;;;;8.52;2.92;;;;;;;24.54;45.76;100132.03;5056406;28;20044;-64
2023/09/29 07:39:42;;;;;;;8.90;2.75;;;;;;;24.55;45.29;100131.78;5055858;28;20033;-64
2023/09/29 07:42:09;;;;;;;11.95;3.78;;;;;;;24.64;46.09;100137.63;5055813;28;20056;-64
2023/09/29 07:44:34;;;;;;;7.20;2.58;;;;;;;24.60;45.49;100139.19;5055889;28;20053;-66
2023/09/29 07:47:00;;;;;;;6.90;2.95;;;;;;;24.64;44.77;100138.44;5056240;28;20247;-66
2023/09/29 07:49:26;;;;;;;7.45;3.13;;;;;;;24.78;45.31;100126.22;5055915;28;20048;-66
2023/09/29 07:51:51;;;;;;;6.35;3.28;;;;;;;24.84;45.47;100135.25;5054611;28;20041;-64
2023/09/29 07:54:18;;;;;;;4.60;2.80;;;;;;;25.00;44.23;100131.78;5054843;28;20047;-64
2023/09/29 07:56:47;;;;;;;12.40;3.33;;;;;;;25.19;43.98;100126.09;5055728;28;20059;-64
2023/09/29 07:59:14;;;;;;;5.88;3.17;;;;;;;25.29;43.11;100127.06;5055890;28;20068;-64
2023/09/29 08:01:42;;;;;;;8.32;3.08;;;;;;;25.39;43.01;100124.50;5056329;28;20036;-64
2023/09/29 08:04:08;;;;;;;5.30;2.95;;;;;;;25.48;42.01;100127.59;5056197;28;20039;-66
2023/09/29 08:06:33;;;;;;;9.35;3.22;;;;;;;25.57;42.87;100123.38;5055889;28;20279;-64
2023/09/29 08:09:00;;;;;;;8.95;3.08;;;;;;;25.67;40.92;100128.97;5055536;28;20045;-66
2023/09/29 08:11:25;;;;;;;12.93;3.22;;;;;;;25.73;41.01;100130.69;5055649;28;20266;-66
2023/09/29 08:13:53;;;;;;;5.18;2.72;;;;;;;25.61;40.30;100123.69;5055768;28;20098;-64
2023/09/29 08:16:20;;;;;;;8.27;2.90;;;;;;;25.52;40.88;100122.50;5055414;28;20350;-66
2023/09/29 08:18:45;;;;;;;5.25;2.47;;;;;;;25.50;39.87;100127.34;5055634;28;20048;-63
2023/09/29 08:21:11;;;;;;;8.63;2.80;;;;;;;25.50;39.77;100122.75;5055103;28;20134;-64
2023/09/29 08:23:37;;;;;;;3.75;2.53;;;;;;;25.59;38.71;100131.28;5055713;28;20074;-64
2023/09/29 08:26:04;;;;;;;8.70;2.63;;;;;;;25.59;39.78;100120.44;5055495;28;20222;-66
2023/09/29 08:28:29;;;;;;;8.75;2.92;;;;;;;25.63;40.22;100127.81;5055898;28;20037;-66
2023/09/29 08:30:54;;;;;;;12.13;2.85;;;;;;;25.35;40.32;100122.53;5055375;28;20059;-64
2023/09/29 08:33:20;;;;;;;6.35;2.40;;;;;;;25.41;39.00;100118.81;5056018;28;20341;-64
2023/09/29 08:35:45;;;;;;;6.47;2.83;;;;;;;25.43;38.68;100114.78;5056138;28;20037;-66
2023/09/29 08:38:11;;;;;;;7.97;2.58;;;;;;;25.34;38.15;100116.31;5056526;28;20047;-66
2023/09/29 08:40:40;;;;;;;4.72;2.60;;;;;;;25.41;37.35;100118.81;5055405;28;20289;-65
2023/09/29 08:43:06;;;;;;;4.68;2.22;;;;;;;25.31;36.88;100113.28;5056936;28;20092;-67
2023/09/29 08:45:32;;;;;;;7.65;2.60;;;;;;;25.33;36.76;100116.56;5055863;28;20139;-67
2023/09/29 08:47:59;;;;;;;4.80;3.05;;;;;;;25.37;36.68;100115.81;5055122;28;20045;-67
2023/09/29 08:50:25;;;;;;;8.10;3.35;;;;;;;25.38;36.93;100122.84;5055121;28;20036;-67
2023/09/29 08:52:52;;;;;;;6.22;2.60;;;;;;;25.46;37.19;100119.72;5055557;28;20041;-64
2023/09/29 08:55:19;;;;;;;7.32;2.70;;;;;;;25.51;37.17;100118.16;5054825;28;20033;-67
2023/09/29 08:57:45;;;;;;;10.23;3.00;;;;;;;25.44;35.72;100119.16;5055642;28;20045;-67
2023/09/29 09:00:12;;;;;;;8.32;3.05;;;;;;;25.55;35.97;100116.56;5055497;28;20029;-65
2023/09/29 09:02:44;;;;;;;5.90;2.53;;;;;;;25.67;34.99;100118.13;5052954;28;20358;-64
2023/09/29 09:05:11;;;;;;;7.45;2.90;;;;;;;25.80;35.51;100118.81;5055895;28;20299;-67
2023/09/29 09:07:38;;;;;;;8.43;3.05;;;;;;;25.89;34.98;100114.59;5055694;28;20341;-65
2023/09/29 09:10:04;;;;;;;5.05;2.70;;;;;;;25.95;33.88;100119.00;5055996;28;20969;-64
2023/09/29 09:12:37;;;;;;;7.47;3.75;;;;;;;26.06;34.96;100118.88;5056335;28;20060;-67
2023/09/29 09:15:04;;;;;;;7.32;3.50;;;;;;;26.16;33.90;100118.19;5055458;28;20335;-64
2023/09/29 09:17:36;;;;;;;4.35;2.95;;;;;;;26.15;33.64;100118.44;5054601;28;20037;-64
2023/09/29 09:20:03;;;;;;;6.72;3.10;;;;;;;26.19;33.10;100120.38;5055403;28;20032;-67
2023/09/29 09:22:32;;;;;;;9.70;3.40;;;;;;;26.25;32.94;100122.06;5055457;28;20041;-67
2023/09/29 09:25:04;;;;;;;8.65;3.03;;;;;;;26.30;33.91;100132.97;5055065;28;20075;-68
2023/09/29 09:27:39;;;;;;;6.60;3.05;;;;;;;26.31;32.70;100128.38;5055628;28;20338;-68
2023/09/29 09:30:05;;;;;;;7.65;2.90;;;;;;;26.15;31.70;100130.09;5055163;28;20033;-67
2023/09/29 09:32:31;;;;;;;44.28;7.53;;;;;;;26.05;30.71;100135.44;5055730;28;20029;-64
2023/09/29 09:34:58;;;;;;;5.68;3.42;;;;;;;26.02;31.52;100122.38;5055380;28;20074;-64
2023/09/29 09:37:28;;;;;;;8.38;3.08;;;;;;;26.12;31.95;100127.09;5055817;28;20291;-64
2023/09/29 09:39:59;;;;;;;7.78;3.15;;;;;;;26.20;31.56;100129.34;5055830;28;20032;-65
2023/09/29 09:42:26;;;;;;;9.57;3.10;;;;;;;26.23;29.54;100124.22;5055364;28;20032;-67
2023/09/29 09:44:57;;;;;;;6.60;2.92;;;;;;;26.20;30.66;100127.44;5055906;28;20104;-64
2023/09/29 09:47:25;;;;;;;8.02;3.40;;;;;;;26.28;30.77;100120.75;5059105;28;20110;-67
2023/09/29 09:49:56;;;;;;;6.78;3.67;;;;;;;26.42;31.02;100121.19;5058629;28;20035;-67
2023/09/29 09:52:30;;;;;;;5.82;3.38;;;;;;;26.47;31.36;100123.94;5059362;28;20029;-64
2023/09/29 09:55:08;;;;;;;4.63;3.40;;;;;;;26.51;30.90;100122.34;5057892;28;20037;-64
2023/09/29 09:57:37;;;;;;;60.75;8.48;;;;;;;26.55;30.52;100124.28;5056634;28;20039;-67
2023/09/29 10:00:11;;;;;;;7.78;3.63;;;;;;;26.64;30.75;100122.75;5054822;28;20063;-67
2023/09/29 10:02:44;;;;;;;6.57;3.40;;;;;;;26.69;30.31;100122.78;5055812;28;20049;-67
2023/09/29 10:08:10;;;;;;;7.47;3.78;;;;;;;26.54;29.39;100119.94;5049975;28;20057;-64
2023/09/29 10:10:40;;;;;;;9.05;3.40;;;;;;;26.55;28.08;100116.16;5055282;28;20037;-64
2023/09/29 10:13:11;;;;;;;23.60;5.13;;;;;;;26.53;27.66;100104.72;5055077;28;20036;-64
2023/09/29 10:15:38;;;;;;;9.70;3.55;;;;;;;26.46;27.68;100103.31;5055042;28;20048;-66
2023/09/29 10:18:14;;;;;;;7.10;3.80;;;;;;;26.43;27.64;100099.19;5054414;28;20061;-64
2023/09/29 10:20:39;;;;;;;8.32;3.72;;;;;;;26.41;28.21;100098.63;5053257;28;20039;-64
2023/09/29 10:23:06;;;;;;;6.70;3.70;;;;;;;26.49;27.39;100098.16;5055137;28;20235;-64
2023/09/29 10:25:37;;;;;;;6.07;3.45;;;;;;;26.52;27.46;100097.66;5058272;28;20045;-64
2023/09/29 10:28:06;;;;;;;20.27;4.65;;;;;;;26.56;28.56;100077.06;5055340;28;20047;-67
2023/09/29 10:30:32;;;;;;;5.75;3.60;;;;;;;26.59;27.53;100081.97;5054531;28;20322;-67
2023/09/29 10:33:11;;;;;;;24.00;5.40;;;;;;;26.59;29.57;100076.53;5055760;28;20142;-64
2023/09/29 10:35:44;;;;;;;10.80;4.03;;;;;;;26.60;28.01;100077.34;5063317;28;20033;-67
2023/09/29 10:38:23;;;;;;;8.45;3.50;;;;;;;26.65;28.14;100080.09;5054768;28;20377;-65
2023/09/29 10:40:49;;;;;;;3.95;3.30;;;;;;;26.61;27.43;100074.38;5054428;28;20100;-64
2023/09/29 10:43:18;;;;;;;4.88;2.90;;;;;;;26.63;27.40;100071.41;5054440;28;20100;-67
2023/09/29 10:45:44;;;;;;;7.22;3.20;;;;;;;26.61;27.32;100059.97;5054421;28;20029;-67
2023/09/29 10:48:10;;;;;;;7.75;3.50;;;;;;;26.60;27.95;100055.63;5054878;28;20036;-67
2023/09/29 10:50:39;;;;;;;9.45;4.10;;;;;;;26.67;29.22;100065.19;5054114;28;20125;-67
2023/09/29 10:53:05;;;;;;;6.90;3.47;;;;;;;26.67;26.99;100059.75;5054437;28;20041;-67
2023/09/29 10:55:31;;;;;;;5.68;3.22;;;;;;;26.56;27.82;100057.22;5054408;28;20036;-64
2023/09/29 10:58:00;;;;;;;5.05;3.30;;;;;;;26.50;29.15;100048.22;5053560;28;20106;-64
2023/09/29 11:00:25;;;;;;;5.65;3.53;;;;;;;26.41;27.19;100055.19;5054674;28;20033;-67
2023/09/29 11:02:52;;;;;;;7.57;3.85;;;;;;;26.37;27.76;100045.94;5055624;28;20357;-64
2023/09/29 11:05:20;;;;;;;6.90;3.53;;;;;;;26.35;27.61;100048.91;5054404;28;20033;-64
2023/09/29 11:07:51;;;;;;;3.97;3.35;;;;;;;26.37;27.27;100045.94;5054389;28;20092;-67
2023/09/29 11:10:17;;;;;;;7.55;3.42;;;;;;;26.40;27.59;100053.56;5051642;28;20079;-65
2023/09/29 11:12:47;;;;;;;5.68;3.50;;;;;;;26.36;26.36;100049.72;5055571;28;20243;-68
2023/09/29 11:15:14;;;;;;;8.18;3.20;;;;;;;26.36;28.35;100045.13;5054188;28;20056;-67
2023/09/29 11:17:45;;;;;;;33.20;5.63;;;;;;;26.39;28.26;100046.50;5053115;28;20033;-67
2023/09/29 11:20:16;;;;;;;10.18;3.50;;;;;;;26.44;29.00;100037.56;5053669;28;20029;-68
2023/09/29 11:22:42;;;;;;;4.38;3.40;;;;;;;26.41;28.85;100041.63;5053877;28;20307;-64
2023/09/29 11:25:17;;;;;;;5.55;3.58;;;;;;;26.47;29.11;100034.34;5054505;28;20203;-67